sensor_id;sensor_type;location;lat;lon;timestamp;P1;durP1;ratioP1;P2;durP2;ratioP2
21305;SDS011;10812;51.838;5.838;2022-10-16T00:00:58;4.87;;;2.80;;
21305;SDS011;10812;51.838;5.838;2022-10-16T00:03:31;5.10;;;2.90;;
21305;SDS011;10812;51.838;5.838;2022-10-16T00:05:59;4.60;;;2.70;;
21305;SDS011;10812;51.838;5.838;2022-10-16T00:08:28;5.20;;;2.93;;
21305;SDS011;10812;51.838;5.838;2022-10-16T00:11:00;4.67;;;2.80;;
21305;SDS011;10812;51.838;5.838;2022-10-16T00:13:32;7.83;;;3.33;;
21305;SDS011;10812;51.838;5.838;2022-10-16T00:16:01;4.53;;;3.40;;
21305;SDS011;10812;51.838;5.838;2022-10-16T00:18:30;7.83;;;3.27;;
21305;SDS011;10812;51.838;5.838;2022-10-16T00:21:01;8.37;;;3.23;;
21305;SDS011;10812;51.838;5.838;2022-10-16T00:23:29;4.67;;;3.20;;
21305;SDS011;10812;51.838;5.838;2022-10-16T00:25:59;7.20;;;3.67;;
21305;SDS011;10812;51.838;5.838;2022-10-16T00:28:28;5.53;;;3.87;;
21305;SDS011;10812;51.838;5.838;2022-10-16T00:30:58;6.17;;;3.57;;
21305;SDS011;10812;51.838;5.838;2022-10-16T00:33:30;5.03;;;3.30;;
21305;SDS011;10812;51.838;5.838;2022-10-16T00:35:58;8.17;;;3.73;;
21305;SDS011;10812;51.838;5.838;2022-10-16T00:38:26;6.27;;;3.93;;
21305;SDS011;10812;51.838;5.838;2022-10-16T00:40:54;5.43;;;3.70;;
21305;SDS011;10812;51.838;5.838;2022-10-16T00:43:32;8.03;;;3.80;;
21305;SDS011;10812;51.838;5.838;2022-10-16T00:46:05;8.23;;;3.87;;
21305;SDS011;10812;51.838;5.838;2022-10-16T00:48:41;6.50;;;4.13;;
21305;SDS011;10812;51.838;5.838;2022-10-16T00:51:12;5.03;;;3.47;;
21305;SDS011;10812;51.838;5.838;2022-10-16T00:53:41;8.83;;;3.80;;
21305;SDS011;10812;51.838;5.838;2022-10-16T00:56:10;7.80;;;3.77;;
21305;SDS011;10812;51.838;5.838;2022-10-16T00:58:38;5.87;;;3.73;;
21305;SDS011;10812;51.838;5.838;2022-10-16T01:01:08;5.03;;;3.87;;
21305;SDS011;10812;51.838;5.838;2022-10-16T01:03:36;6.30;;;3.53;;
21305;SDS011;10812;51.838;5.838;2022-10-16T01:06:07;5.83;;;4.07;;
21305;SDS011;10812;51.838;5.838;2022-10-16T01:08:49;6.20;;;3.70;;
21305;SDS011;10812;51.838;5.838;2022-10-16T01:11:30;7.17;;;3.93;;
21305;SDS011;10812;51.838;5.838;2022-10-16T01:14:02;7.60;;;3.73;;
21305;SDS011;10812;51.838;5.838;2022-10-16T01:16:40;5.03;;;4.27;;
21305;SDS011;10812;51.838;5.838;2022-10-16T01:19:17;5.40;;;3.50;;
21305;SDS011;10812;51.838;5.838;2022-10-16T01:21:52;5.30;;;4.07;;
21305;SDS011;10812;51.838;5.838;2022-10-16T01:24:25;5.47;;;3.63;;
21305;SDS011;10812;51.838;5.838;2022-10-16T01:27:10;5.70;;;4.23;;
21305;SDS011;10812;51.838;5.838;2022-10-16T01:29:42;6.03;;;3.77;;
21305;SDS011;10812;51.838;5.838;2022-10-16T01:32:17;5.53;;;4.30;;
21305;SDS011;10812;51.838;5.838;2022-10-16T01:34:50;6.17;;;4.00;;
21305;SDS011;10812;51.838;5.838;2022-10-16T01:37:28;5.03;;;4.17;;
21305;SDS011;10812;51.838;5.838;2022-10-16T01:40:00;6.90;;;4.07;;
21305;SDS011;10812;51.838;5.838;2022-10-16T01:42:35;7.40;;;4.07;;
21305;SDS011;10812;51.838;5.838;2022-10-16T01:45:06;7.37;;;4.27;;
21305;SDS011;10812;51.838;5.838;2022-10-16T01:47:37;11.27;;;5.23;;
21305;SDS011;10812;51.838;5.838;2022-10-16T01:50:07;5.87;;;4.50;;
21305;SDS011;10812;51.838;5.838;2022-10-16T01:52:37;6.10;;;4.43;;
21305;SDS011;10812;51.838;5.838;2022-10-16T01:55:09;6.53;;;4.57;;
21305;SDS011;10812;51.838;5.838;2022-10-16T01:57:41;6.20;;;4.10;;
21305;SDS011;10812;51.838;5.838;2022-10-16T02:00:13;4.73;;;3.87;;
21305;SDS011;10812;51.838;5.838;2022-10-16T02:02:44;5.47;;;3.67;;
21305;SDS011;10812;51.838;5.838;2022-10-16T02:05:18;10.87;;;4.97;;
21305;SDS011;10812;51.838;5.838;2022-10-16T02:07:50;8.33;;;3.97;;
21305;SDS011;10812;51.838;5.838;2022-10-16T02:10:19;6.63;;;3.67;;
21305;SDS011;10812;51.838;5.838;2022-10-16T02:12:50;3.93;;;3.20;;
21305;SDS011;10812;51.838;5.838;2022-10-16T02:15:22;5.73;;;3.97;;
21305;SDS011;10812;51.838;5.838;2022-10-16T02:17:50;3.40;;;2.90;;
21305;SDS011;10812;51.838;5.838;2022-10-16T02:20:19;3.93;;;3.00;;
21305;SDS011;10812;51.838;5.838;2022-10-16T02:22:54;5.17;;;2.50;;
21305;SDS011;10812;51.838;5.838;2022-10-16T02:25:25;3.30;;;2.60;;
21305;SDS011;10812;51.838;5.838;2022-10-16T02:28:00;4.13;;;3.00;;
21305;SDS011;10812;51.838;5.838;2022-10-16T02:30:32;4.53;;;2.63;;
21305;SDS011;10812;51.838;5.838;2022-10-16T02:33:04;3.27;;;2.30;;
21305;SDS011;10812;51.838;5.838;2022-10-16T02:35:36;2.50;;;2.13;;
21305;SDS011;10812;51.838;5.838;2022-10-16T02:38:04;3.70;;;2.60;;
21305;SDS011;10812;51.838;5.838;2022-10-16T02:40:36;4.73;;;2.00;;
21305;SDS011;10812;51.838;5.838;2022-10-16T02:43:06;3.50;;;2.40;;
21305;SDS011;10812;51.838;5.838;2022-10-16T02:45:35;2.90;;;2.03;;
21305;SDS011;10812;51.838;5.838;2022-10-16T02:48:03;2.27;;;2.07;;
21305;SDS011;10812;51.838;5.838;2022-10-16T02:50:32;4.03;;;2.73;;
21305;SDS011;10812;51.838;5.838;2022-10-16T02:53:00;3.17;;;1.90;;
21305;SDS011;10812;51.838;5.838;2022-10-16T02:55:28;3.10;;;2.30;;
21305;SDS011;10812;51.838;5.838;2022-10-16T02:57:56;3.50;;;2.30;;
21305;SDS011;10812;51.838;5.838;2022-10-16T03:05:56;4.23;;;2.10;;
21305;SDS011;10812;51.838;5.838;2022-10-16T03:08:24;4.00;;;2.37;;
21305;SDS011;10812;51.838;5.838;2022-10-16T03:10:52;2.40;;;2.10;;
21305;SDS011;10812;51.838;5.838;2022-10-16T03:13:20;3.33;;;1.90;;
21305;SDS011;10812;51.838;5.838;2022-10-16T03:15:48;3.30;;;2.37;;
21305;SDS011;10812;51.838;5.838;2022-10-16T03:18:17;2.80;;;2.07;;
21305;SDS011;10812;51.838;5.838;2022-10-16T03:20:45;2.50;;;2.00;;
21305;SDS011;10812;51.838;5.838;2022-10-16T03:23:14;3.70;;;1.73;;
21305;SDS011;10812;51.838;5.838;2022-10-16T03:25:42;2.60;;;1.63;;
21305;SDS011;10812;51.838;5.838;2022-10-16T03:28:13;3.00;;;2.30;;
21305;SDS011;10812;51.838;5.838;2022-10-16T03:30:42;2.40;;;2.20;;
21305;SDS011;10812;51.838;5.838;2022-10-16T03:33:10;2.70;;;1.93;;
21305;SDS011;10812;51.838;5.838;2022-10-16T03:35:39;2.63;;;1.87;;
21305;SDS011;10812;51.838;5.838;2022-10-16T03:38:07;3.13;;;2.00;;
21305;SDS011;10812;51.838;5.838;2022-10-16T03:40:36;8.53;;;2.93;;
21305;SDS011;10812;51.838;5.838;2022-10-16T03:43:04;3.50;;;2.50;;
21305;SDS011;10812;51.838;5.838;2022-10-16T03:45:32;2.30;;;2.03;;
21305;SDS011;10812;51.838;5.838;2022-10-16T03:48:00;2.83;;;2.07;;
21305;SDS011;10812;51.838;5.838;2022-10-16T03:50:29;2.60;;;2.10;;
21305;SDS011;10812;51.838;5.838;2022-10-16T03:52:57;2.13;;;1.73;;
21305;SDS011;10812;51.838;5.838;2022-10-16T03:55:25;4.10;;;2.30;;
21305;SDS011;10812;51.838;5.838;2022-10-16T03:57:55;3.30;;;2.40;;
21305;SDS011;10812;51.838;5.838;2022-10-16T04:00:23;3.63;;;2.23;;
21305;SDS011;10812;51.838;5.838;2022-10-16T04:02:51;3.10;;;2.20;;
21305;SDS011;10812;51.838;5.838;2022-10-16T04:05:19;2.83;;;2.07;;
21305;SDS011;10812;51.838;5.838;2022-10-16T04:07:47;3.50;;;2.13;;
21305;SDS011;10812;51.838;5.838;2022-10-16T04:10:15;2.33;;;2.07;;
21305;SDS011;10812;51.838;5.838;2022-10-16T04:12:43;2.80;;;2.10;;
21305;SDS011;10812;51.838;5.838;2022-10-16T04:15:13;2.07;;;1.87;;
21305;SDS011;10812;51.838;5.838;2022-10-16T04:17:41;4.20;;;2.17;;
21305;SDS011;10812;51.838;5.838;2022-10-16T04:20:09;2.33;;;2.13;;
21305;SDS011;10812;51.838;5.838;2022-10-16T04:22:37;3.83;;;2.23;;
21305;SDS011;10812;51.838;5.838;2022-10-16T04:25:05;3.53;;;2.00;;
21305;SDS011;10812;51.838;5.838;2022-10-16T04:27:33;2.27;;;2.00;;
21305;SDS011;10812;51.838;5.838;2022-10-16T04:30:02;3.20;;;2.33;;
21305;SDS011;10812;51.838;5.838;2022-10-16T04:32:32;2.27;;;2.07;;
21305;SDS011;10812;51.838;5.838;2022-10-16T04:35:00;4.63;;;2.10;;
21305;SDS011;10812;51.838;5.838;2022-10-16T04:37:29;2.87;;;1.70;;
21305;SDS011;10812;51.838;5.838;2022-10-16T04:39:57;2.63;;;1.87;;
21305;SDS011;10812;51.838;5.838;2022-10-16T04:42:25;2.50;;;1.87;;
21305;SDS011;10812;51.838;5.838;2022-10-16T04:44:53;3.37;;;2.10;;
21305;SDS011;10812;51.838;5.838;2022-10-16T04:47:21;2.10;;;1.90;;
21305;SDS011;10812;51.838;5.838;2022-10-16T04:49:51;3.73;;;2.03;;
21305;SDS011;10812;51.838;5.838;2022-10-16T04:52:19;3.37;;;2.20;;
21305;SDS011;10812;51.838;5.838;2022-10-16T04:54:47;2.63;;;2.23;;
21305;SDS011;10812;51.838;5.838;2022-10-16T04:57:16;4.33;;;2.17;;
21305;SDS011;10812;51.838;5.838;2022-10-16T04:59:45;2.30;;;2.03;;
21305;SDS011;10812;51.838;5.838;2022-10-16T05:02:13;2.47;;;2.00;;
21305;SDS011;10812;51.838;5.838;2022-10-16T05:04:41;2.00;;;1.83;;
21305;SDS011;10812;51.838;5.838;2022-10-16T05:07:10;3.17;;;2.20;;
21305;SDS011;10812;51.838;5.838;2022-10-16T05:09:38;3.63;;;2.60;;
21305;SDS011;10812;51.838;5.838;2022-10-16T05:12:06;2.60;;;2.07;;
21305;SDS011;10812;51.838;5.838;2022-10-16T05:14:34;3.50;;;2.20;;
21305;SDS011;10812;51.838;5.838;2022-10-16T05:17:02;3.50;;;2.23;;
21305;SDS011;10812;51.838;5.838;2022-10-16T05:19:30;4.33;;;1.93;;
21305;SDS011;10812;51.838;5.838;2022-10-16T05:21:58;3.57;;;2.20;;
21305;SDS011;10812;51.838;5.838;2022-10-16T05:24:28;4.57;;;2.30;;
21305;SDS011;10812;51.838;5.838;2022-10-16T05:26:56;4.60;;;2.47;;
21305;SDS011;10812;51.838;5.838;2022-10-16T05:29:24;4.70;;;2.40;;
21305;SDS011;10812;51.838;5.838;2022-10-16T05:31:53;5.33;;;2.43;;
21305;SDS011;10812;51.838;5.838;2022-10-16T05:34:21;2.93;;;2.40;;
21305;SDS011;10812;51.838;5.838;2022-10-16T05:36:49;3.33;;;2.30;;
21305;SDS011;10812;51.838;5.838;2022-10-16T05:39:17;3.20;;;2.30;;
21305;SDS011;10812;51.838;5.838;2022-10-16T05:41:49;5.13;;;2.77;;
21305;SDS011;10812;51.838;5.838;2022-10-16T05:44:17;6.00;;;1.93;;
21305;SDS011;10812;51.838;5.838;2022-10-16T05:46:45;3.63;;;2.00;;
21305;SDS011;10812;51.838;5.838;2022-10-16T05:49:14;5.00;;;2.33;;
21305;SDS011;10812;51.838;5.838;2022-10-16T05:51:42;5.73;;;3.73;;
21305;SDS011;10812;51.838;5.838;2022-10-16T05:54:10;4.77;;;2.43;;
21305;SDS011;10812;51.838;5.838;2022-10-16T05:56:38;3.53;;;2.40;;
21305;SDS011;10812;51.838;5.838;2022-10-16T05:59:08;6.37;;;2.40;;
21305;SDS011;10812;51.838;5.838;2022-10-16T06:01:36;3.07;;;2.53;;
21305;SDS011;10812;51.838;5.838;2022-10-16T06:04:04;4.20;;;2.70;;
21305;SDS011;10812;51.838;5.838;2022-10-16T06:06:32;4.70;;;2.87;;
21305;SDS011;10812;51.838;5.838;2022-10-16T06:09:02;2.93;;;2.60;;
21305;SDS011;10812;51.838;5.838;2022-10-16T06:11:31;2.83;;;2.50;;
21305;SDS011;10812;51.838;5.838;2022-10-16T06:14:01;4.47;;;2.40;;
21305;SDS011;10812;51.838;5.838;2022-10-16T06:16:34;4.87;;;2.40;;
21305;SDS011;10812;51.838;5.838;2022-10-16T06:19:03;7.20;;;2.73;;
21305;SDS011;10812;51.838;5.838;2022-10-16T06:21:35;4.47;;;2.57;;
21305;SDS011;10812;51.838;5.838;2022-10-16T06:24:03;5.73;;;2.50;;
21305;SDS011;10812;51.838;5.838;2022-10-16T06:26:31;3.77;;;2.97;;
21305;SDS011;10812;51.838;5.838;2022-10-16T06:28:59;6.10;;;2.90;;
21305;SDS011;10812;51.838;5.838;2022-10-16T06:31:28;3.30;;;2.90;;
21305;SDS011;10812;51.838;5.838;2022-10-16T06:33:59;5.93;;;3.53;;
21305;SDS011;10812;51.838;5.838;2022-10-16T06:36:27;3.60;;;2.60;;
21305;SDS011;10812;51.838;5.838;2022-10-16T06:38:56;4.37;;;2.57;;
21305;SDS011;10812;51.838;5.838;2022-10-16T06:41:24;4.00;;;3.00;;
21305;SDS011;10812;51.838;5.838;2022-10-16T06:43:52;3.83;;;2.57;;
21305;SDS011;10812;51.838;5.838;2022-10-16T06:46:21;5.17;;;2.90;;
21305;SDS011;10812;51.838;5.838;2022-10-16T06:48:51;4.73;;;2.60;;
21305;SDS011;10812;51.838;5.838;2022-10-16T06:51:21;4.37;;;2.83;;
21305;SDS011;10812;51.838;5.838;2022-10-16T06:53:51;6.13;;;2.77;;
21305;SDS011;10812;51.838;5.838;2022-10-16T06:56:30;5.10;;;2.70;;
21305;SDS011;10812;51.838;5.838;2022-10-16T06:58:59;5.50;;;2.30;;
21305;SDS011;10812;51.838;5.838;2022-10-16T07:01:28;3.70;;;2.50;;
21305;SDS011;10812;51.838;5.838;2022-10-16T07:03:56;5.43;;;2.40;;
21305;SDS011;10812;51.838;5.838;2022-10-16T07:06:26;2.60;;;1.60;;
21305;SDS011;10812;51.838;5.838;2022-10-16T07:08:57;4.17;;;1.53;;
21305;SDS011;10812;51.838;5.838;2022-10-16T07:11:28;1.63;;;1.10;;
21305;SDS011;10812;51.838;5.838;2022-10-16T07:13:56;2.25;;;1.88;;
21305;SDS011;10812;51.838;5.838;2022-10-16T07:16:25;2.70;;;1.40;;
21305;SDS011;10812;51.838;5.838;2022-10-16T07:18:54;1.88;;;1.25;;
21305;SDS011;10812;51.838;5.838;2022-10-16T07:21:27;3.50;;;1.45;;
21305;SDS011;10812;51.838;5.838;2022-10-16T07:23:58;2.45;;;1.10;;
21305;SDS011;10812;51.838;5.838;2022-10-16T07:26:28;2.55;;;1.58;;
21305;SDS011;10812;51.838;5.838;2022-10-16T07:28:58;4.15;;;1.40;;
21305;SDS011;10812;51.838;5.838;2022-10-16T07:31:26;2.13;;;1.30;;
21305;SDS011;10812;51.838;5.838;2022-10-16T07:33:54;3.53;;;1.50;;
21305;SDS011;10812;51.838;5.838;2022-10-16T07:36:26;2.15;;;1.27;;
21305;SDS011;10812;51.838;5.838;2022-10-16T07:38:54;3.05;;;1.63;;
21305;SDS011;10812;51.838;5.838;2022-10-16T07:41:25;2.80;;;1.57;;
21305;SDS011;10812;51.838;5.838;2022-10-16T07:43:54;1.75;;;1.45;;
21305;SDS011;10812;51.838;5.838;2022-10-16T07:46:26;2.70;;;1.30;;
21305;SDS011;10812;51.838;5.838;2022-10-16T07:48:54;6.10;;;1.63;;
21305;SDS011;10812;51.838;5.838;2022-10-16T07:51:23;3.03;;;2.00;;
21305;SDS011;10812;51.838;5.838;2022-10-16T07:53:53;3.33;;;1.70;;
21305;SDS011;10812;51.838;5.838;2022-10-16T07:56:22;2.13;;;1.40;;
21305;SDS011;10812;51.838;5.838;2022-10-16T07:58:50;3.75;;;1.50;;
21305;SDS011;10812;51.838;5.838;2022-10-16T08:01:19;3.08;;;1.75;;
21305;SDS011;10812;51.838;5.838;2022-10-16T08:03:48;2.53;;;1.40;;
21305;SDS011;10812;51.838;5.838;2022-10-16T08:06:17;1.63;;;1.50;;
21305;SDS011;10812;51.838;5.838;2022-10-16T08:08:54;3.53;;;1.60;;
21305;SDS011;10812;51.838;5.838;2022-10-16T08:11:23;3.00;;;1.30;;
21305;SDS011;10812;51.838;5.838;2022-10-16T08:13:51;1.73;;;1.48;;
21305;SDS011;10812;51.838;5.838;2022-10-16T08:16:19;5.82;;;1.58;;
21305;SDS011;10812;51.838;5.838;2022-10-16T08:18:48;1.88;;;1.17;;
21305;SDS011;10812;51.838;5.838;2022-10-16T08:21:18;4.65;;;1.30;;
21305;SDS011;10812;51.838;5.838;2022-10-16T08:23:49;2.28;;;1.27;;
21305;SDS011;10812;51.838;5.838;2022-10-16T08:26:24;2.67;;;1.17;;
21305;SDS011;10812;51.838;5.838;2022-10-16T08:28:54;2.47;;;1.73;;
21305;SDS011;10812;51.838;5.838;2022-10-16T08:31:23;3.58;;;1.50;;
21305;SDS011;10812;51.838;5.838;2022-10-16T08:33:52;3.95;;;1.17;;
21305;SDS011;10812;51.838;5.838;2022-10-16T08:36:20;5.40;;;1.50;;
21305;SDS011;10812;51.838;5.838;2022-10-16T08:38:49;1.10;;;1.00;;
21305;SDS011;10812;51.838;5.838;2022-10-16T08:41:29;2.42;;;1.17;;
21305;SDS011;10812;51.838;5.838;2022-10-16T08:44:20;2.78;;;1.25;;
21305;SDS011;10812;51.838;5.838;2022-10-16T08:47:00;5.10;;;1.10;;
21305;SDS011;10812;51.838;5.838;2022-10-16T08:49:35;3.08;;;1.25;;
21305;SDS011;10812;51.838;5.838;2022-10-16T08:52:07;2.65;;;1.20;;
21305;SDS011;10812;51.838;5.838;2022-10-16T08:54:41;1.50;;;1.20;;
21305;SDS011;10812;51.838;5.838;2022-10-16T08:57:14;2.67;;;1.50;;
21305;SDS011;10812;51.838;5.838;2022-10-16T08:59:49;2.40;;;1.10;;
21305;SDS011;10812;51.838;5.838;2022-10-16T09:02:21;5.60;;;1.23;;
21305;SDS011;10812;51.838;5.838;2022-10-16T09:07:46;2.38;;;1.10;;
21305;SDS011;10812;51.838;5.838;2022-10-16T09:10:27;3.70;;;1.20;;
21305;SDS011;10812;51.838;5.838;2022-10-16T09:13:10;3.90;;;1.40;;
21305;SDS011;10812;51.838;5.838;2022-10-16T09:15:47;3.00;;;1.30;;
21305;SDS011;10812;51.838;5.838;2022-10-16T09:18:24;3.67;;;1.10;;
21305;SDS011;10812;51.838;5.838;2022-10-16T09:20:59;3.70;;;1.50;;
21305;SDS011;10812;51.838;5.838;2022-10-16T09:23:33;2.40;;;1.10;;
21305;SDS011;10812;51.838;5.838;2022-10-16T09:26:03;4.95;;;1.35;;
21305;SDS011;10812;51.838;5.838;2022-10-16T09:28:38;3.10;;;1.77;;
21305;SDS011;10812;51.838;5.838;2022-10-16T09:31:08;1.60;;;1.27;;
21305;SDS011;10812;51.838;5.838;2022-10-16T09:33:42;2.55;;;1.17;;
21305;SDS011;10812;51.838;5.838;2022-10-16T09:36:12;2.80;;;1.20;;
21305;SDS011;10812;51.838;5.838;2022-10-16T09:38:41;2.35;;;1.10;;
21305;SDS011;10812;51.838;5.838;2022-10-16T09:41:14;4.43;;;1.70;;
21305;SDS011;10812;51.838;5.838;2022-10-16T09:43:49;4.13;;;1.60;;
21305;SDS011;10812;51.838;5.838;2022-10-16T09:46:24;3.25;;;1.33;;
21305;SDS011;10812;51.838;5.838;2022-10-16T09:48:54;6.28;;;1.50;;
21305;SDS011;10812;51.838;5.838;2022-10-16T09:51:25;6.38;;;1.60;;
21305;SDS011;10812;51.838;5.838;2022-10-16T09:53:56;4.68;;;1.38;;
21305;SDS011;10812;51.838;5.838;2022-10-16T09:56:27;6.05;;;1.65;;
21305;SDS011;10812;51.838;5.838;2022-10-16T09:58:58;5.47;;;1.50;;
21305;SDS011;10812;51.838;5.838;2022-10-16T10:01:29;4.20;;;1.70;;
21305;SDS011;10812;51.838;5.838;2022-10-16T10:04:03;5.63;;;1.70;;
21305;SDS011;10812;51.838;5.838;2022-10-16T10:06:32;5.20;;;1.75;;
21305;SDS011;10812;51.838;5.838;2022-10-16T10:09:13;7.18;;;1.85;;
21305;SDS011;10812;51.838;5.838;2022-10-16T10:11:47;4.50;;;1.48;;
21305;SDS011;10812;51.838;5.838;2022-10-16T10:14:30;6.80;;;2.25;;
21305;SDS011;10812;51.838;5.838;2022-10-16T10:17:08;6.25;;;1.55;;
21305;SDS011;10812;51.838;5.838;2022-10-16T10:19:39;5.65;;;1.70;;
21305;SDS011;10812;51.838;5.838;2022-10-16T10:22:20;5.78;;;1.75;;
21305;SDS011;10812;51.838;5.838;2022-10-16T10:30:55;4.00;;;1.55;;
21305;SDS011;10812;51.838;5.838;2022-10-16T10:33:28;7.57;;;2.50;;
21305;SDS011;10812;51.838;5.838;2022-10-16T10:36:09;6.85;;;1.63;;
21305;SDS011;10812;51.838;5.838;2022-10-16T10:38:46;7.13;;;2.30;;
21305;SDS011;10812;51.838;5.838;2022-10-16T10:41:22;9.90;;;1.77;;
21305;SDS011;10812;51.838;5.838;2022-10-16T10:44:21;5.10;;;1.48;;
21305;SDS011;10812;51.838;5.838;2022-10-16T10:47:01;7.07;;;1.83;;
21305;SDS011;10812;51.838;5.838;2022-10-16T10:49:43;6.07;;;1.50;;
21305;SDS011;10812;51.838;5.838;2022-10-16T10:55:20;3.60;;;1.70;;
21305;SDS011;10812;51.838;5.838;2022-10-16T11:00:50;6.15;;;1.90;;
21305;SDS011;10812;51.838;5.838;2022-10-16T11:06:24;7.43;;;1.73;;
21305;SDS011;10812;51.838;5.838;2022-10-16T11:08:56;6.03;;;1.75;;
21305;SDS011;10812;51.838;5.838;2022-10-16T11:11:29;5.80;;;1.63;;
21305;SDS011;10812;51.838;5.838;2022-10-16T11:14:03;5.35;;;1.42;;
21305;SDS011;10812;51.838;5.838;2022-10-16T11:16:39;3.08;;;1.33;;
21305;SDS011;10812;51.838;5.838;2022-10-16T11:19:14;8.45;;;1.80;;
21305;SDS011;10812;51.838;5.838;2022-10-16T11:21:54;7.95;;;2.10;;
21305;SDS011;10812;51.838;5.838;2022-10-16T11:24:29;8.68;;;1.60;;
21305;SDS011;10812;51.838;5.838;2022-10-16T11:27:07;6.35;;;1.58;;
21305;SDS011;10812;51.838;5.838;2022-10-16T11:29:39;8.07;;;2.58;;
21305;SDS011;10812;51.838;5.838;2022-10-16T11:32:14;5.75;;;2.05;;
21305;SDS011;10812;51.838;5.838;2022-10-16T11:34:50;5.18;;;1.58;;
21305;SDS011;10812;51.838;5.838;2022-10-16T11:37:25;4.57;;;1.30;;
21305;SDS011;10812;51.838;5.838;2022-10-16T11:39:59;5.40;;;2.03;;
21305;SDS011;10812;51.838;5.838;2022-10-16T11:42:39;8.35;;;1.75;;
21305;SDS011;10812;51.838;5.838;2022-10-16T11:45:16;5.18;;;1.45;;
21305;SDS011;10812;51.838;5.838;2022-10-16T11:47:55;6.85;;;1.73;;
21305;SDS011;10812;51.838;5.838;2022-10-16T11:50:31;6.38;;;2.45;;
21305;SDS011;10812;51.838;5.838;2022-10-16T11:53:04;5.65;;;1.80;;
21305;SDS011;10812;51.838;5.838;2022-10-16T11:55:41;5.53;;;1.80;;
21305;SDS011;10812;51.838;5.838;2022-10-16T11:58:15;4.93;;;1.55;;
21305;SDS011;10812;51.838;5.838;2022-10-16T12:00:51;8.27;;;3.17;;
21305;SDS011;10812;51.838;5.838;2022-10-16T12:03:26;7.93;;;2.63;;
21305;SDS011;10812;51.838;5.838;2022-10-16T12:06:10;5.78;;;1.40;;
21305;SDS011;10812;51.838;5.838;2022-10-16T12:08:46;8.30;;;2.88;;
21305;SDS011;10812;51.838;5.838;2022-10-16T12:11:30;4.40;;;1.48;;
21305;SDS011;10812;51.838;5.838;2022-10-16T12:16:53;6.97;;;2.05;;
21305;SDS011;10812;51.838;5.838;2022-10-16T12:19:23;9.57;;;1.40;;
21305;SDS011;10812;51.838;5.838;2022-10-16T12:21:55;4.40;;;1.83;;
21305;SDS011;10812;51.838;5.838;2022-10-16T12:24:31;7.47;;;1.98;;
21305;SDS011;10812;51.838;5.838;2022-10-16T12:27:02;8.32;;;1.92;;
21305;SDS011;10812;51.838;5.838;2022-10-16T12:29:33;8.07;;;2.30;;
21305;SDS011;10812;51.838;5.838;2022-10-16T12:32:04;7.40;;;1.63;;
21305;SDS011;10812;51.838;5.838;2022-10-16T12:35:16;7.60;;;1.83;;
21305;SDS011;10812;51.838;5.838;2022-10-16T12:37:48;8.68;;;1.58;;
21305;SDS011;10812;51.838;5.838;2022-10-16T12:40:23;8.32;;;1.90;;
21305;SDS011;10812;51.838;5.838;2022-10-16T12:42:55;6.90;;;1.50;;
21305;SDS011;10812;51.838;5.838;2022-10-16T12:45:27;5.88;;;1.65;;
21305;SDS011;10812;51.838;5.838;2022-10-16T12:47:59;6.30;;;1.40;;
21305;SDS011;10812;51.838;5.838;2022-10-16T12:50:33;8.25;;;2.17;;
21305;SDS011;10812;51.838;5.838;2022-10-16T12:53:04;5.43;;;1.90;;
21305;SDS011;10812;51.838;5.838;2022-10-16T12:55:48;5.38;;;1.75;;
21305;SDS011;10812;51.838;5.838;2022-10-16T12:58:37;6.35;;;2.05;;
21305;SDS011;10812;51.838;5.838;2022-10-16T13:01:25;6.00;;;1.55;;
21305;SDS011;10812;51.838;5.838;2022-10-16T13:04:13;6.88;;;1.38;;
21305;SDS011;10812;51.838;5.838;2022-10-16T13:07:14;4.18;;;1.35;;
21305;SDS011;10812;51.838;5.838;2022-10-16T13:10:11;3.72;;;1.67;;
21305;SDS011;10812;51.838;5.838;2022-10-16T13:12:56;8.15;;;2.45;;
21305;SDS011;10812;51.838;5.838;2022-10-16T13:15:50;9.70;;;2.03;;
21305;SDS011;10812;51.838;5.838;2022-10-16T13:18:26;8.55;;;1.45;;
21305;SDS011;10812;51.838;5.838;2022-10-16T13:21:02;5.13;;;1.50;;
21305;SDS011;10812;51.838;5.838;2022-10-16T13:23:38;6.13;;;1.80;;
21305;SDS011;10812;51.838;5.838;2022-10-16T13:26:18;8.18;;;1.92;;
21305;SDS011;10812;51.838;5.838;2022-10-16T13:28:53;3.55;;;1.30;;
21305;SDS011;10812;51.838;5.838;2022-10-16T13:31:26;4.97;;;1.15;;
21305;SDS011;10812;51.838;5.838;2022-10-16T13:33:57;6.00;;;1.85;;
21305;SDS011;10812;51.838;5.838;2022-10-16T13:36:27;4.05;;;0.93;;
21305;SDS011;10812;51.838;5.838;2022-10-16T13:39:03;5.40;;;1.58;;
21305;SDS011;10812;51.838;5.838;2022-10-16T13:41:40;9.38;;;2.45;;
21305;SDS011;10812;51.838;5.838;2022-10-16T13:44:12;5.15;;;1.70;;
21305;SDS011;10812;51.838;5.838;2022-10-16T13:46:42;7.13;;;1.63;;
21305;SDS011;10812;51.838;5.838;2022-10-16T13:49:13;4.63;;;2.00;;
21305;SDS011;10812;51.838;5.838;2022-10-16T13:51:53;6.10;;;1.70;;
21305;SDS011;10812;51.838;5.838;2022-10-16T13:54:22;3.55;;;1.30;;
21305;SDS011;10812;51.838;5.838;2022-10-16T13:56:52;6.05;;;1.90;;
21305;SDS011;10812;51.838;5.838;2022-10-16T13:59:34;6.93;;;1.80;;
21305;SDS011;10812;51.838;5.838;2022-10-16T14:02:05;5.80;;;1.67;;
21305;SDS011;10812;51.838;5.838;2022-10-16T14:04:43;5.38;;;1.40;;
21305;SDS011;10812;51.838;5.838;2022-10-16T14:07:13;4.45;;;1.45;;
21305;SDS011;10812;51.838;5.838;2022-10-16T14:09:47;3.67;;;1.33;;
21305;SDS011;10812;51.838;5.838;2022-10-16T14:12:18;4.20;;;1.40;;
21305;SDS011;10812;51.838;5.838;2022-10-16T14:14:53;2.88;;;1.20;;
21305;SDS011;10812;51.838;5.838;2022-10-16T14:17:23;7.68;;;1.65;;
21305;SDS011;10812;51.838;5.838;2022-10-16T14:19:54;5.53;;;1.50;;
21305;SDS011;10812;51.838;5.838;2022-10-16T14:22:30;4.13;;;1.40;;
21305;SDS011;10812;51.838;5.838;2022-10-16T14:25:00;5.68;;;1.60;;
21305;SDS011;10812;51.838;5.838;2022-10-16T14:27:32;2.75;;;1.30;;
21305;SDS011;10812;51.838;5.838;2022-10-16T14:30:05;5.75;;;1.38;;
21305;SDS011;10812;51.838;5.838;2022-10-16T14:32:52;4.85;;;2.33;;
21305;SDS011;10812;51.838;5.838;2022-10-16T14:35:23;3.60;;;1.55;;
21305;SDS011;10812;51.838;5.838;2022-10-16T14:37:53;5.78;;;1.40;;
21305;SDS011;10812;51.838;5.838;2022-10-16T14:40:23;7.60;;;1.67;;
21305;SDS011;10812;51.838;5.838;2022-10-16T14:42:54;5.57;;;1.58;;
21305;SDS011;10812;51.838;5.838;2022-10-16T14:45:23;6.05;;;1.63;;
21305;SDS011;10812;51.838;5.838;2022-10-16T14:47:55;4.35;;;1.65;;
21305;SDS011;10812;51.838;5.838;2022-10-16T14:50:25;5.97;;;1.52;;
21305;SDS011;10812;51.838;5.838;2022-10-16T14:52:53;5.25;;;1.50;;
21305;SDS011;10812;51.838;5.838;2022-10-16T14:55:22;3.72;;;1.20;;
21305;SDS011;10812;51.838;5.838;2022-10-16T14:57:51;4.35;;;1.85;;
21305;SDS011;10812;51.838;5.838;2022-10-16T15:00:27;5.65;;;1.40;;
21305;SDS011;10812;51.838;5.838;2022-10-16T15:02:55;5.65;;;1.60;;
21305;SDS011;10812;51.838;5.838;2022-10-16T15:05:24;5.00;;;1.35;;
21305;SDS011;10812;51.838;5.838;2022-10-16T15:07:53;6.70;;;1.83;;
21305;SDS011;10812;51.838;5.838;2022-10-16T15:10:22;6.03;;;1.33;;
21305;SDS011;10812;51.838;5.838;2022-10-16T15:12:51;5.13;;;1.45;;
21305;SDS011;10812;51.838;5.838;2022-10-16T15:18:09;4.35;;;1.30;;
21305;SDS011;10812;51.838;5.838;2022-10-16T15:20:48;3.33;;;1.23;;
21305;SDS011;10812;51.838;5.838;2022-10-16T15:23:17;4.90;;;1.58;;
21305;SDS011;10812;51.838;5.838;2022-10-16T15:25:48;3.92;;;1.48;;
21305;SDS011;10812;51.838;5.838;2022-10-16T15:28:17;4.13;;;1.17;;
21305;SDS011;10812;51.838;5.838;2022-10-16T15:30:48;5.95;;;1.23;;
21305;SDS011;10812;51.838;5.838;2022-10-16T15:44:22;4.78;;;1.95;;
21305;SDS011;10812;51.838;5.838;2022-10-16T15:46:54;6.18;;;1.77;;
21305;SDS011;10812;51.838;5.838;2022-10-16T15:49:22;4.15;;;1.80;;
21305;SDS011;10812;51.838;5.838;2022-10-16T15:51:50;7.82;;;2.03;;
21305;SDS011;10812;51.838;5.838;2022-10-16T15:54:19;2.35;;;1.58;;
21305;SDS011;10812;51.838;5.838;2022-10-16T15:56:49;6.15;;;2.15;;